sensor_id;sensor_type;location;lat;lon;timestamp;P1;durP1;ratioP1;P2;durP2;ratioP2
7767;SDS011;3928;42.626;23.382;2023-05-07T00:02:16;4.50;;;4.10;;
7767;SDS011;3928;42.626;23.382;2023-05-07T00:04:43;7.20;;;4.00;;
7767;SDS011;3928;42.626;23.382;2023-05-07T00:07:11;4.97;;;4.47;;
7767;SDS011;3928;42.626;23.382;2023-05-07T00:09:38;5.70;;;3.63;;
7767;SDS011;3928;42.626;23.382;2023-05-07T00:12:05;6.00;;;4.20;;
7767;SDS011;3928;42.626;23.382;2023-05-07T00:14:32;8.13;;;5.40;;
7767;SDS011;3928;42.626;23.382;2023-05-07T00:16:58;6.80;;;4.30;;
7767;SDS011;3928;42.626;23.382;2023-05-07T00:19:25;4.80;;;4.40;;
7767;SDS011;3928;42.626;23.382;2023-05-07T00:21:52;8.03;;;6.23;;
7767;SDS011;3928;42.626;23.382;2023-05-07T00:24:22;10.90;;;6.57;;
7767;SDS011;3928;42.626;23.382;2023-05-07T00:26:49;8.60;;;6.70;;
7767;SDS011;3928;42.626;23.382;2023-05-07T00:29:16;11.33;;;7.00;;
7767;SDS011;3928;42.626;23.382;2023-05-07T00:31:42;9.53;;;7.27;;
7767;SDS011;3928;42.626;23.382;2023-05-07T00:34:09;10.80;;;7.67;;
7767;SDS011;3928;42.626;23.382;2023-05-07T00:36:36;12.30;;;8.07;;
7767;SDS011;3928;42.626;23.382;2023-05-07T00:39:03;13.50;;;8.57;;
7767;SDS011;3928;42.626;23.382;2023-05-07T00:41:31;13.27;;;8.43;;
7767;SDS011;3928;42.626;23.382;2023-05-07T00:43:58;9.33;;;6.50;;
7767;SDS011;3928;42.626;23.382;2023-05-07T00:46:25;9.37;;;6.57;;
7767;SDS011;3928;42.626;23.382;2023-05-07T00:48:52;5.33;;;4.70;;
7767;SDS011;3928;42.626;23.382;2023-05-07T00:51:21;5.03;;;4.53;;
7767;SDS011;3928;42.626;23.382;2023-05-07T00:53:48;5.20;;;4.70;;
7767;SDS011;3928;42.626;23.382;2023-05-07T00:56:15;6.73;;;4.40;;
7767;SDS011;3928;42.626;23.382;2023-05-07T00:58:44;6.63;;;4.87;;
7767;SDS011;3928;42.626;23.382;2023-05-07T01:01:11;5.87;;;4.23;;
7767;SDS011;3928;42.626;23.382;2023-05-07T01:03:37;5.77;;;4.63;;
7767;SDS011;3928;42.626;23.382;2023-05-07T01:06:04;6.43;;;4.80;;
7767;SDS011;3928;42.626;23.382;2023-05-07T01:08:33;4.93;;;4.43;;
7767;SDS011;3928;42.626;23.382;2023-05-07T01:11:01;5.90;;;4.70;;
7767;SDS011;3928;42.626;23.382;2023-05-07T01:13:28;6.37;;;4.60;;
7767;SDS011;3928;42.626;23.382;2023-05-07T01:15:57;6.03;;;4.73;;
7767;SDS011;3928;42.626;23.382;2023-05-07T01:18:24;9.97;;;5.40;;
7767;SDS011;3928;42.626;23.382;2023-05-07T01:20:51;5.83;;;4.90;;
7767;SDS011;3928;42.626;23.382;2023-05-07T01:23:20;7.43;;;5.70;;
7767;SDS011;3928;42.626;23.382;2023-05-07T01:25:50;5.33;;;4.77;;
7767;SDS011;3928;42.626;23.382;2023-05-07T01:28:18;7.30;;;5.80;;
7767;SDS011;3928;42.626;23.382;2023-05-07T01:30:45;6.43;;;5.13;;
7767;SDS011;3928;42.626;23.382;2023-05-07T01:33:15;6.00;;;5.40;;
7767;SDS011;3928;42.626;23.382;2023-05-07T01:35:47;9.73;;;5.70;;
7767;SDS011;3928;42.626;23.382;2023-05-07T01:38:16;6.07;;;5.47;;
7767;SDS011;3928;42.626;23.382;2023-05-07T01:40:45;6.63;;;5.90;;
7767;SDS011;3928;42.626;23.382;2023-05-07T01:43:12;6.90;;;6.20;;
7767;SDS011;3928;42.626;23.382;2023-05-07T01:45:40;8.67;;;6.87;;
7767;SDS011;3928;42.626;23.382;2023-05-07T01:48:10;7.77;;;6.97;;
7767;SDS011;3928;42.626;23.382;2023-05-07T01:50:38;10.13;;;7.63;;
7767;SDS011;3928;42.626;23.382;2023-05-07T01:53:06;11.20;;;7.33;;
7767;SDS011;3928;42.626;23.382;2023-05-07T01:55:32;11.37;;;7.97;;
7767;SDS011;3928;42.626;23.382;2023-05-07T01:58:03;8.80;;;7.57;;
7767;SDS011;3928;42.626;23.382;2023-05-07T02:00:30;11.97;;;8.67;;
7767;SDS011;3928;42.626;23.382;2023-05-07T02:02:57;8.83;;;7.90;;
7767;SDS011;3928;42.626;23.382;2023-05-07T02:05:24;9.90;;;8.90;;
7767;SDS011;3928;42.626;23.382;2023-05-07T02:07:51;13.13;;;8.77;;
7767;SDS011;3928;42.626;23.382;2023-05-07T02:10:17;11.37;;;7.97;;
7767;SDS011;3928;42.626;23.382;2023-05-07T02:12:44;10.33;;;8.83;;
7767;SDS011;3928;42.626;23.382;2023-05-07T02:15:12;11.53;;;8.67;;
7767;SDS011;3928;42.626;23.382;2023-05-07T02:17:39;11.00;;;7.87;;
7767;SDS011;3928;42.626;23.382;2023-05-07T02:20:25;9.23;;;8.13;;
7767;SDS011;3928;42.626;23.382;2023-05-07T02:22:52;9.00;;;8.17;;
7767;SDS011;3928;42.626;23.382;2023-05-07T02:25:19;9.33;;;7.93;;
7767;SDS011;3928;42.626;23.382;2023-05-07T02:27:45;9.93;;;8.57;;
7767;SDS011;3928;42.626;23.382;2023-05-07T02:30:14;8.57;;;7.77;;
7767;SDS011;3928;42.626;23.382;2023-05-07T02:32:41;9.20;;;8.27;;
7767;SDS011;3928;42.626;23.382;2023-05-07T02:35:08;10.90;;;7.47;;
7767;SDS011;3928;42.626;23.382;2023-05-07T02:37:34;9.93;;;8.17;;
7767;SDS011;3928;42.626;23.382;2023-05-07T02:40:01;12.07;;;9.23;;
7767;SDS011;3928;42.626;23.382;2023-05-07T02:42:29;11.17;;;9.37;;
7767;SDS011;3928;42.626;23.382;2023-05-07T02:44:56;11.00;;;9.07;;
7767;SDS011;3928;42.626;23.382;2023-05-07T02:47:24;10.23;;;8.97;;
7767;SDS011;3928;42.626;23.382;2023-05-07T02:49:52;9.67;;;8.67;;
7767;SDS011;3928;42.626;23.382;2023-05-07T02:52:19;11.80;;;9.00;;
7767;SDS011;3928;42.626;23.382;2023-05-07T02:54:45;11.33;;;9.07;;
7767;SDS011;3928;42.626;23.382;2023-05-07T02:57:12;10.70;;;9.13;;
7767;SDS011;3928;42.626;23.382;2023-05-07T02:59:39;11.20;;;9.37;;
7767;SDS011;3928;42.626;23.382;2023-05-07T03:02:08;11.30;;;10.10;;
7767;SDS011;3928;42.626;23.382;2023-05-07T03:04:36;13.87;;;11.10;;
7767;SDS011;3928;42.626;23.382;2023-05-07T03:07:03;14.33;;;11.13;;
7767;SDS011;3928;42.626;23.382;2023-05-07T03:09:29;18.27;;;12.40;;
7767;SDS011;3928;42.626;23.382;2023-05-07T03:11:56;14.07;;;11.57;;
7767;SDS011;3928;42.626;23.382;2023-05-07T03:14:23;12.90;;;11.43;;
7767;SDS011;3928;42.626;23.382;2023-05-07T03:16:50;13.30;;;11.23;;
7767;SDS011;3928;42.626;23.382;2023-05-07T03:19:16;14.37;;;12.87;;
7767;SDS011;3928;42.626;23.382;2023-05-07T03:21:45;17.17;;;12.37;;
7767;SDS011;3928;42.626;23.382;2023-05-07T03:24:11;18.03;;;12.37;;
7767;SDS011;3928;42.626;23.382;2023-05-07T03:26:38;19.00;;;14.13;;
7767;SDS011;3928;42.626;23.382;2023-05-07T03:29:05;16.07;;;13.57;;
7767;SDS011;3928;42.626;23.382;2023-05-07T03:31:32;17.60;;;13.27;;
7767;SDS011;3928;42.626;23.382;2023-05-07T03:33:58;16.07;;;13.07;;
7767;SDS011;3928;42.626;23.382;2023-05-07T03:36:25;18.47;;;14.67;;
7767;SDS011;3928;42.626;23.382;2023-05-07T03:38:54;18.70;;;15.03;;
7767;SDS011;3928;42.626;23.382;2023-05-07T03:41:20;23.93;;;15.40;;
7767;SDS011;3928;42.626;23.382;2023-05-07T03:43:47;17.03;;;13.87;;
7767;SDS011;3928;42.626;23.382;2023-05-07T03:46:14;17.97;;;14.40;;
7767;SDS011;3928;42.626;23.382;2023-05-07T03:48:41;19.07;;;13.50;;
7767;SDS011;3928;42.626;23.382;2023-05-07T03:51:07;20.80;;;12.67;;
7767;SDS011;3928;42.626;23.382;2023-05-07T03:53:34;16.23;;;12.73;;
7767;SDS011;3928;42.626;23.382;2023-05-07T03:56:03;17.87;;;13.87;;
7767;SDS011;3928;42.626;23.382;2023-05-07T03:58:30;17.87;;;14.80;;
7767;SDS011;3928;42.626;23.382;2023-05-07T04:00:57;17.07;;;12.77;;
7767;SDS011;3928;42.626;23.382;2023-05-07T04:03:24;15.37;;;12.50;;
7767;SDS011;3928;42.626;23.382;2023-05-07T04:05:50;17.43;;;13.87;;
7767;SDS011;3928;42.626;23.382;2023-05-07T04:08:17;19.27;;;14.40;;
7767;SDS011;3928;42.626;23.382;2023-05-07T04:10:44;18.33;;;13.30;;
7767;SDS011;3928;42.626;23.382;2023-05-07T04:13:12;13.90;;;12.33;;
7767;SDS011;3928;42.626;23.382;2023-05-07T04:15:39;14.60;;;12.53;;
7767;SDS011;3928;42.626;23.382;2023-05-07T04:18:06;14.73;;;12.67;;
7767;SDS011;3928;42.626;23.382;2023-05-07T04:20:33;16.67;;;12.33;;
7767;SDS011;3928;42.626;23.382;2023-05-07T04:23:01;15.27;;;12.53;;
7767;SDS011;3928;42.626;23.382;2023-05-07T04:25:28;14.33;;;12.63;;
7767;SDS011;3928;42.626;23.382;2023-05-07T04:27:55;13.73;;;12.23;;
7767;SDS011;3928;42.626;23.382;2023-05-07T04:30:23;14.90;;;12.60;;
7767;SDS011;3928;42.626;23.382;2023-05-07T04:32:50;17.63;;;14.10;;
7767;SDS011;3928;42.626;23.382;2023-05-07T04:35:17;15.10;;;12.90;;
7767;SDS011;3928;42.626;23.382;2023-05-07T04:37:44;14.53;;;12.47;;
7767;SDS011;3928;42.626;23.382;2023-05-07T04:40:11;14.80;;;12.33;;
7767;SDS011;3928;42.626;23.382;2023-05-07T04:42:38;16.43;;;13.17;;
7767;SDS011;3928;42.626;23.382;2023-05-07T04:45:05;15.57;;;11.93;;
7767;SDS011;3928;42.626;23.382;2023-05-07T04:47:35;13.93;;;12.47;;
7767;SDS011;3928;42.626;23.382;2023-05-07T04:50:01;20.93;;;13.80;;
7767;SDS011;3928;42.626;23.382;2023-05-07T04:52:28;17.73;;;13.33;;
7767;SDS011;3928;42.626;23.382;2023-05-07T04:54:56;16.10;;;12.60;;
7767;SDS011;3928;42.626;23.382;2023-05-07T04:57:25;16.83;;;13.77;;
7767;SDS011;3928;42.626;23.382;2023-05-07T04:59:53;16.83;;;12.63;;
7767;SDS011;3928;42.626;23.382;2023-05-07T05:02:20;19.20;;;13.13;;
7767;SDS011;3928;42.626;23.382;2023-05-07T05:04:48;16.23;;;11.50;;
7767;SDS011;3928;42.626;23.382;2023-05-07T05:07:15;18.80;;;13.20;;
7767;SDS011;3928;42.626;23.382;2023-05-07T05:09:41;15.97;;;12.00;;
7767;SDS011;3928;42.626;23.382;2023-05-07T05:12:08;15.27;;;13.17;;
7767;SDS011;3928;42.626;23.382;2023-05-07T05:14:35;20.77;;;12.30;;
7767;SDS011;3928;42.626;23.382;2023-05-07T05:17:02;16.13;;;12.20;;
7767;SDS011;3928;42.626;23.382;2023-05-07T05:19:28;16.87;;;12.60;;
7767;SDS011;3928;42.626;23.382;2023-05-07T05:21:56;14.50;;;12.10;;
7767;SDS011;3928;42.626;23.382;2023-05-07T05:24:23;13.80;;;12.17;;
7767;SDS011;3928;42.626;23.382;2023-05-07T05:26:51;13.03;;;11.63;;
7767;SDS011;3928;42.626;23.382;2023-05-07T05:29:19;15.90;;;12.93;;
7767;SDS011;3928;42.626;23.382;2023-05-07T05:31:46;16.27;;;12.77;;
7767;SDS011;3928;42.626;23.382;2023-05-07T05:34:13;14.70;;;11.73;;
7767;SDS011;3928;42.626;23.382;2023-05-07T05:36:40;15.93;;;12.07;;
7767;SDS011;3928;42.626;23.382;2023-05-07T05:39:08;16.17;;;11.83;;
7767;SDS011;3928;42.626;23.382;2023-05-07T05:41:35;18.13;;;11.83;;
7767;SDS011;3928;42.626;23.382;2023-05-07T05:44:02;14.48;;;11.18;;
7767;SDS011;3928;42.626;23.382;2023-05-07T05:46:28;13.32;;;10.95;;
7767;SDS011;3928;42.626;23.382;2023-05-07T05:48:56;13.95;;;11.15;;
7767;SDS011;3928;42.626;23.382;2023-05-07T05:51:23;13.33;;;11.93;;
7767;SDS011;3928;42.626;23.382;2023-05-07T05:53:50;13.10;;;11.05;;
7767;SDS011;3928;42.626;23.382;2023-05-07T05:56:18;14.57;;;11.65;;
7767;SDS011;3928;42.626;23.382;2023-05-07T05:58:46;14.45;;;11.27;;
7767;SDS011;3928;42.626;23.382;2023-05-07T06:01:13;14.80;;;10.80;;
7767;SDS011;3928;42.626;23.382;2023-05-07T06:03:39;12.52;;;10.07;;
7767;SDS011;3928;42.626;23.382;2023-05-07T06:06:06;12.27;;;10.60;;
7767;SDS011;3928;42.626;23.382;2023-05-07T06:08:33;11.48;;;10.27;;
7767;SDS011;3928;42.626;23.382;2023-05-07T06:11:00;12.35;;;9.55;;
7767;SDS011;3928;42.626;23.382;2023-05-07T06:13:29;11.43;;;9.65;;
7767;SDS011;3928;42.626;23.382;2023-05-07T06:15:56;12.35;;;10.40;;
7767;SDS011;3928;42.626;23.382;2023-05-07T06:18:22;14.93;;;10.52;;
7767;SDS011;3928;42.626;23.382;2023-05-07T06:20:50;15.48;;;10.52;;
7767;SDS011;3928;42.626;23.382;2023-05-07T06:23:17;11.80;;;9.80;;
7767;SDS011;3928;42.626;23.382;2023-05-07T06:25:47;12.70;;;10.38;;
7767;SDS011;3928;42.626;23.382;2023-05-07T06:28:15;10.52;;;9.00;;
7767;SDS011;3928;42.626;23.382;2023-05-07T06:30:43;13.43;;;9.82;;
7767;SDS011;3928;42.626;23.382;2023-05-07T06:33:10;11.35;;;9.93;;
7767;SDS011;3928;42.626;23.382;2023-05-07T06:35:36;11.75;;;9.40;;
7767;SDS011;3928;42.626;23.382;2023-05-07T06:38:03;13.93;;;9.90;;
7767;SDS011;3928;42.626;23.382;2023-05-07T06:40:30;14.75;;;8.65;;
7767;SDS011;3928;42.626;23.382;2023-05-07T06:42:57;12.55;;;8.90;;
7767;SDS011;3928;42.626;23.382;2023-05-07T06:45:23;11.27;;;8.23;;
7767;SDS011;3928;42.626;23.382;2023-05-07T06:47:52;16.15;;;8.27;;
7767;SDS011;3928;42.626;23.382;2023-05-07T06:50:18;9.25;;;7.50;;
7767;SDS011;3928;42.626;23.382;2023-05-07T06:52:46;12.73;;;8.75;;
7767;SDS011;3928;42.626;23.382;2023-05-07T06:55:13;11.18;;;9.35;;
7767;SDS011;3928;42.626;23.382;2023-05-07T06:57:40;11.77;;;8.07;;
7767;SDS011;3928;42.626;23.382;2023-05-07T07:00:07;11.65;;;8.55;;
7767;SDS011;3928;42.626;23.382;2023-05-07T07:02:35;9.52;;;8.18;;
7767;SDS011;3928;42.626;23.382;2023-05-07T07:05:04;10.68;;;8.57;;
7767;SDS011;3928;42.626;23.382;2023-05-07T07:07:31;9.80;;;8.15;;
7767;SDS011;3928;42.626;23.382;2023-05-07T07:09:58;11.52;;;8.65;;
7767;SDS011;3928;42.626;23.382;2023-05-07T07:12:25;8.63;;;7.55;;
7767;SDS011;3928;42.626;23.382;2023-05-07T07:14:54;8.52;;;7.38;;
7767;SDS011;3928;42.626;23.382;2023-05-07T07:17:20;9.32;;;8.32;;
7767;SDS011;3928;42.626;23.382;2023-05-07T07:19:47;8.27;;;7.47;;
7767;SDS011;3928;42.626;23.382;2023-05-07T07:22:16;8.93;;;7.32;;
7767;SDS011;3928;42.626;23.382;2023-05-07T07:24:43;11.77;;;6.97;;
7767;SDS011;3928;42.626;23.382;2023-05-07T07:27:09;8.85;;;7.70;;
7767;SDS011;3928;42.626;23.382;2023-05-07T07:29:36;8.45;;;6.88;;
7767;SDS011;3928;42.626;23.382;2023-05-07T07:32:03;9.52;;;7.65;;
7767;SDS011;3928;42.626;23.382;2023-05-07T07:34:30;10.77;;;7.28;;
7767;SDS011;3928;42.626;23.382;2023-05-07T07:36:57;11.40;;;7.85;;
7767;SDS011;3928;42.626;23.382;2023-05-07T07:39:25;11.07;;;8.57;;
7767;SDS011;3928;42.626;23.382;2023-05-07T07:41:52;11.35;;;8.25;;
7767;SDS011;3928;42.626;23.382;2023-05-07T07:44:19;13.93;;;8.30;;
7767;SDS011;3928;42.626;23.382;2023-05-07T07:46:45;8.13;;;7.32;;
7767;SDS011;3928;42.626;23.382;2023-05-07T07:49:12;7.70;;;6.82;;
7767;SDS011;3928;42.626;23.382;2023-05-07T07:51:39;9.38;;;7.90;;
7767;SDS011;3928;42.626;23.382;2023-05-07T07:54:06;11.85;;;8.15;;
7767;SDS011;3928;42.626;23.382;2023-05-07T07:56:34;9.15;;;7.95;;
7767;SDS011;3928;42.626;23.382;2023-05-07T07:59:01;12.57;;;8.10;;
7767;SDS011;3928;42.626;23.382;2023-05-07T08:01:29;9.57;;;7.43;;
7767;SDS011;3928;42.626;23.382;2023-05-07T08:03:56;9.77;;;7.28;;
7767;SDS011;3928;42.626;23.382;2023-05-07T08:06:24;12.38;;;7.70;;
7767;SDS011;3928;42.626;23.382;2023-05-07T08:08:51;9.32;;;7.68;;
7767;SDS011;3928;42.626;23.382;2023-05-07T08:11:18;9.63;;;6.93;;
7767;SDS011;3928;42.626;23.382;2023-05-07T08:13:47;9.60;;;7.22;;
7767;SDS011;3928;42.626;23.382;2023-05-07T08:16:14;10.98;;;7.05;;
7767;SDS011;3928;42.626;23.382;2023-05-07T08:18:41;9.30;;;7.35;;
7767;SDS011;3928;42.626;23.382;2023-05-07T08:21:08;11.00;;;6.63;;
7767;SDS011;3928;42.626;23.382;2023-05-07T08:23:35;8.00;;;6.60;;
7767;SDS011;3928;42.626;23.382;2023-05-07T08:26:01;8.32;;;6.43;;
7767;SDS011;3928;42.626;23.382;2023-05-07T08:28:28;8.80;;;6.95;;
7767;SDS011;3928;42.626;23.382;2023-05-07T08:30:56;10.25;;;7.70;;
7767;SDS011;3928;42.626;23.382;2023-05-07T08:33:25;12.27;;;7.22;;
7767;SDS011;3928;42.626;23.382;2023-05-07T08:35:52;9.93;;;6.82;;
7767;SDS011;3928;42.626;23.382;2023-05-07T08:38:19;7.70;;;6.85;;
7767;SDS011;3928;42.626;23.382;2023-05-07T08:40:46;11.88;;;7.90;;
7767;SDS011;3928;42.626;23.382;2023-05-07T08:43:13;10.27;;;6.25;;
7767;SDS011;3928;42.626;23.382;2023-05-07T08:45:40;8.48;;;7.60;;
7767;SDS011;3928;42.626;23.382;2023-05-07T08:48:13;12.43;;;7.30;;
7767;SDS011;3928;42.626;23.382;2023-05-07T08:50:41;7.63;;;6.15;;
7767;SDS011;3928;42.626;23.382;2023-05-07T08:53:08;10.13;;;6.30;;
7767;SDS011;3928;42.626;23.382;2023-05-07T08:55:35;6.05;;;5.30;;
7767;SDS011;3928;42.626;23.382;2023-05-07T08:58:02;8.07;;;5.47;;
7767;SDS011;3928;42.626;23.382;2023-05-07T09:00:29;9.32;;;5.50;;
7767;SDS011;3928;42.626;23.382;2023-05-07T09:02:56;6.25;;;5.10;;
7767;SDS011;3928;42.626;23.382;2023-05-07T09:05:24;5.28;;;4.60;;
7767;SDS011;3928;42.626;23.382;2023-05-07T09:07:51;6.80;;;5.05;;
7767;SDS011;3928;42.626;23.382;2023-05-07T09:10:18;5.70;;;4.55;;
7767;SDS011;3928;42.626;23.382;2023-05-07T09:12:46;8.02;;;5.60;;
7767;SDS011;3928;42.626;23.382;2023-05-07T09:15:13;7.20;;;6.43;;
7767;SDS011;3928;42.626;23.382;2023-05-07T09:17:40;7.30;;;5.20;;
7767;SDS011;3928;42.626;23.382;2023-05-07T09:20:07;8.63;;;6.05;;
7767;SDS011;3928;42.626;23.382;2023-05-07T09:22:37;10.07;;;6.05;;
7767;SDS011;3928;42.626;23.382;2023-05-07T09:25:06;6.32;;;5.50;;
7767;SDS011;3928;42.626;23.382;2023-05-07T09:27:34;6.57;;;5.38;;
7767;SDS011;3928;42.626;23.382;2023-05-07T09:30:03;6.85;;;5.35;;
7767;SDS011;3928;42.626;23.382;2023-05-07T09:32:34;6.18;;;5.20;;
7767;SDS011;3928;42.626;23.382;2023-05-07T09:35:03;9.05;;;5.25;;
7767;SDS011;3928;42.626;23.382;2023-05-07T09:37:30;6.35;;;5.35;;
7767;SDS011;3928;42.626;23.382;2023-05-07T09:39:58;5.43;;;4.65;;
7767;SDS011;3928;42.626;23.382;2023-05-07T09:42:25;6.82;;;4.80;;
7767;SDS011;3928;42.626;23.382;2023-05-07T09:44:52;5.70;;;4.60;;
7767;SDS011;3928;42.626;23.382;2023-05-07T09:47:19;8.20;;;4.90;;
7767;SDS011;3928;42.626;23.382;2023-05-07T09:49:49;5.57;;;5.07;;
7767;SDS011;3928;42.626;23.382;2023-05-07T09:52:19;5.00;;;4.50;;
7767;SDS011;3928;42.626;23.382;2023-05-07T09:54:47;8.50;;;4.88;;
7767;SDS011;3928;42.626;23.382;2023-05-07T09:57:17;5.78;;;4.15;;
7767;SDS011;3928;42.626;23.382;2023-05-07T09:59:45;5.78;;;4.22;;
7767;SDS011;3928;42.626;23.382;2023-05-07T10:02:13;6.55;;;4.13;;
7767;SDS011;3928;42.626;23.382;2023-05-07T10:04:43;5.35;;;4.68;;
7767;SDS011;3928;42.626;23.382;2023-05-07T10:07:11;8.68;;;5.03;;
7767;SDS011;3928;42.626;23.382;2023-05-07T10:09:40;5.68;;;5.18;;
7767;SDS011;3928;42.626;23.382;2023-05-07T10:12:08;6.47;;;4.93;;
7767;SDS011;3928;42.626;23.382;2023-05-07T10:14:37;8.88;;;4.68;;
7767;SDS011;3928;42.626;23.382;2023-05-07T10:17:04;6.13;;;5.07;;
7767;SDS011;3928;42.626;23.382;2023-05-07T10:19:32;4.75;;;4.15;;
7767;SDS011;3928;42.626;23.382;2023-05-07T10:22:02;8.90;;;4.38;;
7767;SDS011;3928;42.626;23.382;2023-05-07T10:24:32;5.28;;;4.43;;
7767;SDS011;3928;42.626;23.382;2023-05-07T10:27:00;6.10;;;4.82;;
7767;SDS011;3928;42.626;23.382;2023-05-07T10:29:33;8.07;;;4.22;;
7767;SDS011;3928;42.626;23.382;2023-05-07T10:32:13;5.75;;;4.90;;
7767;SDS011;3928;42.626;23.382;2023-05-07T10:34:56;5.72;;;4.93;;
7767;SDS011;3928;42.626;23.382;2023-05-07T10:37:28;5.25;;;4.72;;
7767;SDS011;3928;42.626;23.382;2023-05-07T10:39:55;8.90;;;5.05;;
7767;SDS011;3928;42.626;23.382;2023-05-07T10:42:22;9.85;;;4.72;;
7767;SDS011;3928;42.626;23.382;2023-05-07T10:44:51;6.97;;;4.32;;
7767;SDS011;3928;42.626;23.382;2023-05-07T10:47:18;5.70;;;4.63;;
7767;SDS011;3928;42.626;23.382;2023-05-07T10:55:49;5.40;;;4.60;;
7767;SDS011;3928;42.626;23.382;2023-05-07T10:58:23;6.13;;;4.38;;
7767;SDS011;3928;42.626;23.382;2023-05-07T11:00:56;7.93;;;5.22;;
7767;SDS011;3928;42.626;23.382;2023-05-07T11:03:24;7.38;;;4.22;;
7767;SDS011;3928;42.626;23.382;2023-05-07T11:08:52;7.63;;;4.55;;
7767;SDS011;3928;42.626;23.382;2023-05-07T11:11:21;7.07;;;4.60;;
7767;SDS011;3928;42.626;23.382;2023-05-07T11:14:11;4.72;;;3.75;;
7767;SDS011;3928;42.626;23.382;2023-05-07T11:16:39;5.13;;;4.40;;
7767;SDS011;3928;42.626;23.382;2023-05-07T11:19:07;5.25;;;4.50;;
7767;SDS011;3928;42.626;23.382;2023-05-07T11:21:35;7.70;;;4.28;;
7767;SDS011;3928;42.626;23.382;2023-05-07T11:24:03;5.85;;;4.43;;
7767;SDS011;3928;42.626;23.382;2023-05-07T11:26:41;5.30;;;4.80;;
7767;SDS011;3928;42.626;23.382;2023-05-07T11:29:13;5.65;;;4.70;;
7767;SDS011;3928;42.626;23.382;2023-05-07T11:31:44;5.68;;;4.40;;
7767;SDS011;3928;42.626;23.382;2023-05-07T11:34:15;6.53;;;4.22;;
7767;SDS011;3928;42.626;23.382;2023-05-07T11:36:47;5.15;;;4.65;;
7767;SDS011;3928;42.626;23.382;2023-05-07T11:39:24;5.70;;;4.25;;
7767;SDS011;3928;42.626;23.382;2023-05-07T11:41:55;7.40;;;4.60;;
7767;SDS011;3928;42.626;23.382;2023-05-07T11:44:21;5.68;;;3.85;;
7767;SDS011;3928;42.626;23.382;2023-05-07T11:46:49;4.40;;;4.00;;
7767;SDS011;3928;42.626;23.382;2023-05-07T11:49:16;5.00;;;3.80;;
7767;SDS011;3928;42.626;23.382;2023-05-07T11:51:44;8.10;;;4.55;;
7767;SDS011;3928;42.626;23.382;2023-05-07T11:54:11;6.07;;;4.25;;
7767;SDS011;3928;42.626;23.382;2023-05-07T11:56:41;6.80;;;4.63;;
7767;SDS011;3928;42.626;23.382;2023-05-07T11:59:10;7.13;;;4.78;;
7767;SDS011;3928;42.626;23.382;2023-05-07T12:01:37;6.68;;;4.10;;
7767;SDS011;3928;42.626;23.382;2023-05-07T12:04:05;5.35;;;4.25;;
7767;SDS011;3928;42.626;23.382;2023-05-07T12:06:35;7.55;;;5.30;;
7767;SDS011;3928;42.626;23.382;2023-05-07T12:09:02;5.65;;;4.47;;
7767;SDS011;3928;42.626;23.382;2023-05-07T12:11:32;5.13;;;4.55;;
7767;SDS011;3928;42.626;23.382;2023-05-07T12:13:58;7.28;;;4.40;;
7767;SDS011;3928;42.626;23.382;2023-05-07T12:16:25;5.00;;;4.50;;
7767;SDS011;3928;42.626;23.382;2023-05-07T12:18:53;8.00;;;4.63;;
7767;SDS011;3928;42.626;23.382;2023-05-07T12:21:21;5.82;;;4.53;;
7767;SDS011;3928;42.626;23.382;2023-05-07T12:23:49;5.68;;;4.65;;
7767;SDS011;3928;42.626;23.382;2023-05-07T12:26:16;5.95;;;4.30;;
7767;SDS011;3928;42.626;23.382;2023-05-07T12:28:45;8.13;;;4.88;;
7767;SDS011;3928;42.626;23.382;2023-05-07T12:31:13;6.30;;;4.72;;
7767;SDS011;3928;42.626;23.382;2023-05-07T12:33:40;6.68;;;4.43;;
7767;SDS011;3928;42.626;23.382;2023-05-07T12:36:08;8.73;;;4.15;;
7767;SDS011;3928;42.626;23.382;2023-05-07T12:38:39;8.80;;;4.35;;
7767;SDS011;3928;42.626;23.382;2023-05-07T12:41:07;4.95;;;4.43;;
7767;SDS011;3928;42.626;23.382;2023-05-07T12:43:35;5.40;;;4.07;;
7767;SDS011;3928;42.626;23.382;2023-05-07T12:46:04;10.68;;;4.10;;
7767;SDS011;3928;42.626;23.382;2023-05-07T12:48:32;4.45;;;3.92;;
7767;SDS011;3928;42.626;23.382;2023-05-07T12:51:00;7.68;;;4.43;;
7767;SDS011;3928;42.626;23.382;2023-05-07T12:53:27;5.03;;;4.15;;
7767;SDS011;3928;42.626;23.382;2023-05-07T12:55:57;4.32;;;3.97;;
7767;SDS011;3928;42.626;23.382;2023-05-07T12:58:25;4.55;;;4.15;;
7767;SDS011;3928;42.626;23.382;2023-05-07T13:00:53;6.70;;;4.20;;
7767;SDS011;3928;42.626;23.382;2023-05-07T13:03:24;4.43;;;4.00;;
7767;SDS011;3928;42.626;23.382;2023-05-07T13:05:52;5.00;;;3.90;;
7767;SDS011;3928;42.626;23.382;2023-05-07T13:08:28;5.63;;;3.95;;
7767;SDS011;3928;42.626;23.382;2023-05-07T13:10:58;5.25;;;3.97;;
7767;SDS011;3928;42.626;23.382;2023-05-07T13:13:28;7.78;;;4.82;;
7767;SDS011;3928;42.626;23.382;2023-05-07T13:15:55;4.32;;;3.92;;
7767;SDS011;3928;42.626;23.382;2023-05-07T13:18:24;7.50;;;4.20;;
7767;SDS011;3928;42.626;23.382;2023-05-07T13:20:51;5.93;;;4.07;;
7767;SDS011;3928;42.626;23.382;2023-05-07T13:23:18;4.90;;;3.80;;
7767;SDS011;3928;42.626;23.382;2023-05-07T13:25:44;6.50;;;4.22;;
7767;SDS011;3928;42.626;23.382;2023-05-07T13:28:13;5.60;;;4.13;;
7767;SDS011;3928;42.626;23.382;2023-05-07T13:30:40;4.18;;;3.75;;
7767;SDS011;3928;42.626;23.382;2023-05-07T13:33:07;4.75;;;4.05;;
7767;SDS011;3928;42.626;23.382;2023-05-07T13:35:34;4.00;;;3.70;;
7767;SDS011;3928;42.626;23.382;2023-05-07T13:38:00;5.28;;;3.92;;
7767;SDS011;3928;42.626;23.382;2023-05-07T13:40:27;3.72;;;3.08;;
7767;SDS011;3928;42.626;23.382;2023-05-07T13:42:56;3.70;;;3.38;;
7767;SDS011;3928;42.626;23.382;2023-05-07T13:45:26;4.85;;;3.20;;
7767;SDS011;3928;42.626;23.382;2023-05-07T13:47:54;3.15;;;2.88;;
7767;SDS011;3928;42.626;23.382;2023-05-07T13:50:22;3.42;;;3.13;;
7767;SDS011;3928;42.626;23.382;2023-05-07T13:52:48;6.40;;;3.15;;
7767;SDS011;3928;42.626;23.382;2023-05-07T13:55:16;3.63;;;3.30;;
7767;SDS011;3928;42.626;23.382;2023-05-07T13:57:43;4.75;;;3.28;;
7767;SDS011;3928;42.626;23.382;2023-05-07T14:00:11;7.90;;;3.63;;
7767;SDS011;3928;42.626;23.382;2023-05-07T14:02:40;6.18;;;3.30;;
7767;SDS011;3928;42.626;23.382;2023-05-07T14:05:07;4.82;;;2.97;;
7767;SDS011;3928;42.626;23.382;2023-05-07T14:07:35;5.10;;;2.97;;
7767;SDS011;3928;42.626;23.382;2023-05-07T14:10:02;4.25;;;3.20;;
7767;SDS011;3928;42.626;23.382;2023-05-07T14:12:29;5.63;;;3.30;;
7767;SDS011;3928;42.626;23.382;2023-05-07T14:14:56;3.20;;;2.90;;
7767;SDS011;3928;42.626;23.382;2023-05-07T14:17:22;6.03;;;3.65;;
7767;SDS011;3928;42.626;23.382;2023-05-07T14:19:52;4.47;;;3.95;;
7767;SDS011;3928;42.626;23.382;2023-05-07T14:22:20;5.32;;;3.40;;
7767;SDS011;3928;42.626;23.382;2023-05-07T14:24:47;4.18;;;3.45;;
7767;SDS011;3928;42.626;23.382;2023-05-07T14:27:14;4.53;;;3.65;;
7767;SDS011;3928;42.626;23.382;2023-05-07T14:29:41;4.10;;;3.35;;
7767;SDS011;3928;42.626;23.382;2023-05-07T14:32:08;5.95;;;3.20;;
7767;SDS011;3928;42.626;23.382;2023-05-07T14:34:35;6.80;;;3.50;;
7767;SDS011;3928;42.626;23.382;2023-05-07T14:37:03;3.47;;;3.17;;
7767;SDS011;3928;42.626;23.382;2023-05-07T14:39:30;3.80;;;3.40;;
7767;SDS011;3928;42.626;23.382;2023-05-07T14:41:57;4.28;;;3.50;;
7767;SDS011;3928;42.626;23.382;2023-05-07T14:44:24;4.28;;;2.95;;
7767;SDS011;3928;42.626;23.382;2023-05-07T14:46:50;3.50;;;3.08;;
7767;SDS011;3928;42.626;23.382;2023-05-07T14:49:17;3.95;;;3.20;;
7767;SDS011;3928;42.626;23.382;2023-05-07T14:51:44;3.15;;;2.95;;
7767;SDS011;3928;42.626;23.382;2023-05-07T14:54:12;3.97;;;3.42;;
7767;SDS011;3928;42.626;23.382;2023-05-07T14:56:40;4.47;;;3.40;;
7767;SDS011;3928;42.626;23.382;2023-05-07T14:59:07;8.40;;;3.63;;
7767;SDS011;3928;42.626;23.382;2023-05-07T15:01:35;5.65;;;3.33;;
7767;SDS011;3928;42.626;23.382;2023-05-07T15:04:02;3.53;;;3.22;;
7767;SDS011;3928;42.626;23.382;2023-05-07T15:06:30;5.40;;;3.30;;